createdAt,value
2022-09-20T00:00:30.012Z,16.71
2022-09-20T00:01:31.877Z,16.69
2022-09-20T00:02:33.725Z,16.67
2022-09-20T00:03:35.520Z,16.65
2022-09-20T00:04:37.374Z,16.65
2022-09-20T00:05:39.214Z,16.65
2022-09-20T00:06:41.169Z,16.66
2022-09-20T00:07:43.008Z,16.64
2022-09-20T00:08:44.805Z,16.64
2022-09-20T00:09:46.597Z,16.64
2022-09-20T00:10:48.492Z,16.63
2022-09-20T00:11:50.322Z,16.64
2022-09-20T00:12:52.118Z,16.65
2022-09-20T00:13:53.848Z,16.68
2022-09-20T00:14:55.623Z,16.69
2022-09-20T00:15:57.420Z,16.68
2022-09-20T00:16:59.451Z,16.66
2022-09-20T00:18:01.274Z,16.67
2022-09-20T00:19:03.069Z,16.68
2022-09-20T00:20:05.076Z,16.69
2022-09-20T00:21:06.887Z,16.70
2022-09-20T00:22:08.750Z,16.70
2022-09-20T00:23:10.808Z,16.69
2022-09-20T00:24:12.588Z,16.68
2022-09-20T00:25:14.396Z,16.67
2022-09-20T00:26:16.697Z,16.68
2022-09-20T00:27:18.543Z,16.68
2022-09-20T00:28:20.354Z,16.69
2022-09-20T00:29:22.147Z,16.70
2022-09-20T00:30:24.045Z,16.70
2022-09-20T00:31:25.884Z,16.71
2022-09-20T00:32:27.715Z,16.72
2022-09-20T00:33:29.515Z,16.74
2022-09-20T00:34:31.319Z,16.71
2022-09-20T00:35:33.121Z,16.72
2022-09-20T00:36:35.030Z,16.71
2022-09-20T00:37:36.879Z,16.71
2022-09-20T00:38:38.902Z,16.71
2022-09-20T00:39:40.716Z,16.71
2022-09-20T00:40:42.955Z,16.70
2022-09-20T00:41:44.710Z,16.69
2022-09-20T00:42:46.565Z,16.69
2022-09-20T00:43:48.360Z,16.69
2022-09-20T00:44:50.169Z,16.68
2022-09-20T00:45:52.004Z,16.66
2022-09-20T00:46:53.882Z,16.65
2022-09-20T00:47:55.766Z,16.64
2022-09-20T00:48:57.588Z,16.66
2022-09-20T00:49:59.391Z,16.61
2022-09-20T00:51:01.304Z,16.59
2022-09-20T00:52:03.118Z,16.59
2022-09-20T00:53:04.954Z,16.61
2022-09-20T00:54:06.785Z,16.64
2022-09-20T00:55:08.603Z,16.64
2022-09-20T00:56:11.120Z,16.68
2022-09-20T00:57:12.939Z,16.69
2022-09-20T00:58:14.797Z,16.70
2022-09-20T00:59:16.594Z,16.71
2022-09-20T01:00:18.901Z,16.69
2022-09-20T01:01:20.753Z,16.66
2022-09-20T01:02:22.677Z,16.66
2022-09-20T01:03:24.555Z,16.65
2022-09-20T01:04:26.355Z,16.64
2022-09-20T01:05:28.150Z,16.63
2022-09-20T01:06:30.562Z,16.63
2022-09-20T01:07:32.368Z,16.64
2022-09-20T01:08:34.221Z,16.64
2022-09-20T01:09:36.041Z,16.64
2022-09-20T01:10:38.046Z,16.62
2022-09-20T01:11:39.844Z,16.62
2022-09-20T01:12:41.645Z,16.63
2022-09-20T01:13:43.499Z,16.64
2022-09-20T01:14:45.306Z,16.65
2022-09-20T01:15:47.102Z,16.65
2022-09-20T01:16:49.121Z,16.68
2022-09-20T01:17:50.920Z,16.69
2022-09-20T01:18:52.773Z,16.68
2022-09-20T01:19:54.568Z,16.69
2022-09-20T01:20:56.497Z,16.69
2022-09-20T01:21:58.275Z,16.71
2022-09-20T01:23:00.089Z,16.71
2022-09-20T01:24:01.928Z,16.70
2022-09-20T01:25:03.806Z,16.70
2022-09-20T01:26:06.357Z,16.71
2022-09-20T01:27:08.155Z,16.71
2022-09-20T01:28:09.974Z,16.72
2022-09-20T01:29:11.829Z,16.71
2022-09-20T01:30:15.431Z,16.71
2022-09-20T01:31:17.276Z,16.70
2022-09-20T01:32:19.025Z,16.69
2022-09-20T01:33:20.818Z,16.68
2022-09-20T01:34:22.675Z,16.67
2022-09-20T01:35:24.501Z,16.66
2022-09-20T01:36:28.103Z,16.65
2022-09-20T01:37:29.890Z,16.62
2022-09-20T01:38:31.694Z,16.61
2022-09-20T01:39:33.541Z,16.61
2022-09-20T01:40:35.544Z,16.60
2022-09-20T01:41:37.400Z,16.60
2022-09-20T01:42:39.194Z,16.61
2022-09-20T01:43:40.994Z,16.59
2022-09-20T01:44:42.844Z,16.60
2022-09-20T01:45:44.762Z,16.58
2022-09-20T01:46:46.643Z,16.55
2022-09-20T01:47:48.447Z,16.52
2022-09-20T01:48:50.247Z,16.53
2022-09-20T01:49:52.091Z,16.51
2022-09-20T01:50:54.184Z,16.47
2022-09-20T01:51:56.002Z,16.43
2022-09-20T01:52:57.800Z,16.37
2022-09-20T01:53:59.673Z,16.35
2022-09-20T01:55:01.508Z,16.35
2022-09-20T01:56:03.434Z,16.35
2022-09-20T01:57:05.232Z,16.36
2022-09-20T01:58:07.028Z,16.36
2022-09-20T01:59:23.321Z,16.37
2022-09-20T02:00:12.902Z,16.36
2022-09-20T02:01:14.748Z,16.37
2022-09-20T02:02:16.585Z,16.37
2022-09-20T02:03:18.433Z,16.37
2022-09-20T02:04:20.353Z,16.37
2022-09-20T02:05:22.193Z,16.39
2022-09-20T02:06:24.299Z,16.39
2022-09-20T02:07:26.108Z,16.39
2022-09-20T02:08:27.901Z,16.38
2022-09-20T02:09:29.709Z,16.39
2022-09-20T02:10:31.666Z,16.36
2022-09-20T02:11:33.557Z,16.33
2022-09-20T02:12:35.356Z,16.28
2022-09-20T02:13:37.154Z,16.25
2022-09-20T02:14:38.960Z,16.23
2022-09-20T02:15:40.818Z,16.22
2022-09-20T02:16:42.818Z,16.20
2022-09-20T02:17:44.634Z,16.19
2022-09-20T02:18:46.439Z,16.20
2022-09-20T02:19:48.267Z,16.20
2022-09-20T02:20:50.414Z,16.18
2022-09-20T02:21:52.215Z,16.17
2022-09-20T02:22:54.060Z,16.13
2022-09-20T02:23:55.887Z,16.09
2022-09-20T02:24:57.637Z,16.09
2022-09-20T02:25:59.475Z,16.10
2022-09-20T02:27:01.670Z,16.08
2022-09-20T02:28:03.466Z,16.05
2022-09-20T02:29:05.329Z,16.02
2022-09-20T02:30:07.482Z,16.00
2022-09-20T02:31:09.315Z,15.98
2022-09-20T02:32:11.011Z,15.99
2022-09-20T02:33:12.817Z,16.00
2022-09-20T02:34:14.509Z,16.00
2022-09-20T02:35:16.308Z,15.98
2022-09-20T02:36:18.255Z,15.97
2022-09-20T02:37:20.036Z,15.96
2022-09-20T02:38:21.730Z,15.91
2022-09-20T02:39:23.521Z,15.87
2022-09-20T02:40:25.451Z,15.82
2022-09-20T02:41:27.361Z,15.78
2022-09-20T02:42:29.338Z,15.73
2022-09-20T02:43:31.040Z,15.71
2022-09-20T02:44:32.843Z,15.69
2022-09-20T02:45:34.697Z,15.71
2022-09-20T02:46:36.674Z,15.68
2022-09-20T02:47:38.483Z,15.66
2022-09-20T02:48:40.286Z,15.65
2022-09-20T02:49:42.081Z,15.65
2022-09-20T02:50:43.970Z,15.64
2022-09-20T02:51:45.806Z,15.65
2022-09-20T02:52:47.609Z,15.66
2022-09-20T02:53:49.409Z,15.68
2022-09-20T02:54:51.193Z,15.70
2022-09-20T02:55:52.999Z,15.73
2022-09-20T02:56:55.153Z,15.75
2022-09-20T02:57:57.044Z,15.76
2022-09-20T02:58:58.831Z,15.79
2022-09-20T03:00:00.536Z,15.79
2022-09-20T03:01:02.388Z,15.80
2022-09-20T03:02:04.188Z,15.77
2022-09-20T03:03:05.975Z,15.74
2022-09-20T03:04:07.789Z,15.74
2022-09-20T03:05:09.573Z,15.72
2022-09-20T03:06:11.376Z,15.72
2022-09-20T03:07:13.230Z,15.74
2022-09-20T03:08:15.011Z,15.73
2022-09-20T03:09:16.703Z,15.73
2022-09-20T03:10:20.305Z,15.74
2022-09-20T03:11:22.114Z,15.74
2022-09-20T03:12:23.943Z,15.74
2022-09-20T03:13:25.963Z,15.74
2022-09-20T03:14:27.751Z,15.73
2022-09-20T03:15:29.548Z,15.71
2022-09-20T03:16:32.304Z,15.72
2022-09-20T03:17:34.122Z,15.73
2022-09-20T03:18:35.937Z,15.73
2022-09-20T03:19:37.724Z,15.74
2022-09-20T03:20:39.719Z,15.75
2022-09-20T03:21:41.826Z,15.77
2022-09-20T03:22:43.671Z,15.77
2022-09-20T03:23:45.369Z,15.77
2022-09-20T03:24:47.172Z,15.76
2022-09-20T03:25:48.894Z,15.74
2022-09-20T03:26:50.702Z,15.70
2022-09-20T03:27:52.554Z,15.71
2022-09-20T03:28:54.418Z,15.72
2022-09-20T03:29:56.217Z,15.75
2022-09-20T03:30:58.314Z,15.77
2022-09-20T03:32:00.284Z,15.80
2022-09-20T03:33:02.219Z,15.84
2022-09-20T03:34:04.012Z,15.86
2022-09-20T03:35:05.811Z,15.88
2022-09-20T03:36:07.911Z,15.90
2022-09-20T03:37:10.027Z,15.92
2022-09-20T03:38:11.850Z,15.93
2022-09-20T03:39:13.677Z,15.95
2022-09-20T03:40:16.127Z,15.97
2022-09-20T03:41:17.990Z,15.97
2022-09-20T03:42:19.797Z,15.95
2022-09-20T03:43:21.621Z,15.95
2022-09-20T03:44:23.627Z,15.95
2022-09-20T03:45:25.424Z,15.95
2022-09-20T03:46:27.533Z,15.94
2022-09-20T03:47:29.325Z,15.93
2022-09-20T03:48:31.167Z,15.93
2022-09-20T03:49:32.972Z,15.91
2022-09-20T03:50:34.856Z,15.88
2022-09-20T03:51:36.558Z,15.87
2022-09-20T03:52:38.252Z,15.86
2022-09-20T03:53:40.302Z,15.85
2022-09-20T03:54:42.094Z,15.83
2022-09-20T03:55:43.782Z,15.81
2022-09-20T03:56:45.685Z,15.81
2022-09-20T03:57:47.485Z,15.82
2022-09-20T03:58:49.332Z,15.83
2022-09-20T03:59:51.203Z,15.85
2022-09-20T04:00:53.065Z,15.84
2022-09-20T04:01:54.824Z,15.85
2022-09-20T04:02:56.602Z,15.86
2022-09-20T04:03:58.472Z,15.86
2022-09-20T04:05:00.266Z,15.87
2022-09-20T04:06:02.063Z,15.87
2022-09-20T04:07:03.856Z,15.90
2022-09-20T04:08:05.559Z,15.88
2022-09-20T04:09:07.401Z,15.87
2022-09-20T04:10:09.493Z,15.83
2022-09-20T04:11:11.295Z,15.81
2022-09-20T04:12:13.088Z,15.79
2022-09-20T04:13:14.990Z,15.75
2022-09-20T04:14:16.829Z,15.72
2022-09-20T04:15:18.845Z,15.69
2022-09-20T04:16:21.064Z,15.68
2022-09-20T04:17:22.844Z,15.65
2022-09-20T04:18:24.640Z,15.63
2022-09-20T04:19:30.814Z,15.60
2022-09-20T04:20:30.500Z,15.57
2022-09-20T04:21:32.299Z,15.56
2022-09-20T04:22:34.097Z,15.55
2022-09-20T04:23:35.889Z,15.57
2022-09-20T04:24:37.724Z,15.58
2022-09-20T04:25:43.604Z,15.59
2022-09-20T04:26:43.227Z,15.60
2022-09-20T04:27:45.560Z,15.60
2022-09-20T04:28:47.290Z,15.60
2022-09-20T04:29:49.142Z,15.60
2022-09-20T04:30:51.350Z,15.60
2022-09-20T04:31:54.252Z,15.59
2022-09-20T04:32:56.379Z,15.60
2022-09-20T04:33:58.169Z,15.63
2022-09-20T04:35:00.614Z,15.64
2022-09-20T04:36:02.483Z,15.66
2022-09-20T04:37:04.495Z,15.68
2022-09-20T04:38:06.309Z,15.69
2022-09-20T04:39:08.104Z,15.69
2022-09-20T04:40:11.117Z,15.69
2022-09-20T04:41:13.198Z,15.68
2022-09-20T04:42:15.618Z,15.70
2022-09-20T04:43:17.659Z,15.71
2022-09-20T04:44:19.460Z,15.73
2022-09-20T04:45:22.112Z,15.75
2022-09-20T04:46:24.258Z,15.77
2022-09-20T04:47:26.068Z,15.79
2022-09-20T04:48:27.863Z,15.79
2022-09-20T04:49:29.691Z,15.81
2022-09-20T04:50:31.638Z,15.83
2022-09-20T04:51:33.451Z,15.84
2022-09-20T04:52:35.238Z,15.86
2022-09-20T04:53:37.062Z,15.88
2022-09-20T04:54:38.889Z,15.90
2022-09-20T04:55:40.724Z,15.90
2022-09-20T04:56:42.840Z,15.91
2022-09-20T04:57:44.652Z,15.92
2022-09-20T04:58:46.468Z,15.92
2022-09-20T04:59:48.269Z,15.90
2022-09-20T05:00:50.245Z,15.91
2022-09-20T05:01:52.197Z,15.91
2022-09-20T05:02:54.050Z,15.93
2022-09-20T05:03:55.849Z,15.94
2022-09-20T05:04:57.658Z,15.96
2022-09-20T05:05:59.513Z,15.95
2022-09-20T05:07:01.425Z,15.96
2022-09-20T05:08:03.639Z,15.96
2022-09-20T05:09:06.443Z,15.94
2022-09-20T05:10:09.045Z,15.94
2022-09-20T05:11:10.902Z,15.92
2022-09-20T05:12:12.709Z,15.88
2022-09-20T05:13:14.643Z,15.85
2022-09-20T05:14:16.451Z,15.81
2022-09-20T05:15:18.253Z,15.79
2022-09-20T05:16:20.655Z,15.80
2022-09-20T05:17:22.599Z,15.79
2022-09-20T05:18:24.944Z,15.79
2022-09-20T05:19:26.808Z,15.77
2022-09-20T05:20:29.586Z,15.81
2022-09-20T05:21:31.502Z,15.82
2022-09-20T05:22:33.399Z,15.83
2022-09-20T05:23:35.700Z,15.85
2022-09-20T05:24:37.703Z,15.86
2022-09-20T05:25:39.550Z,15.89
2022-09-20T05:26:41.918Z,15.90
2022-09-20T05:27:43.931Z,15.87
2022-09-20T05:28:45.731Z,15.86
2022-09-20T05:29:47.676Z,15.85
2022-09-20T05:30:49.731Z,15.84
2022-09-20T05:31:51.654Z,15.81
2022-09-20T05:32:53.980Z,15.77
2022-09-20T05:33:55.978Z,15.75
2022-09-20T05:34:57.814Z,15.73
2022-09-20T05:35:59.742Z,15.72
2022-09-20T05:37:01.611Z,15.73
2022-09-20T05:38:03.399Z,15.74
2022-09-20T05:39:05.310Z,15.72
2022-09-20T05:40:07.569Z,15.71
2022-09-20T05:41:09.350Z,15.72
2022-09-20T05:42:11.326Z,15.71
2022-09-20T05:43:13.123Z,15.68
2022-09-20T05:44:15.313Z,15.67
2022-09-20T05:45:17.185Z,15.65
2022-09-20T05:46:19.297Z,15.64
2022-09-20T05:47:21.322Z,15.64
2022-09-20T05:48:23.164Z,15.65
2022-09-20T05:49:24.969Z,15.66
2022-09-20T05:50:27.975Z,15.66
2022-09-20T05:51:29.960Z,15.68
2022-09-20T05:52:31.909Z,15.67
2022-09-20T05:53:33.705Z,15.65
2022-09-20T05:54:35.507Z,15.63
2022-09-20T05:55:37.323Z,15.65
2022-09-20T05:56:39.227Z,15.64
2022-09-20T05:57:41.076Z,15.65
2022-09-20T05:58:42.882Z,15.65
2022-09-20T05:59:45.073Z,15.63
2022-09-20T06:00:47.285Z,15.59
2022-09-20T06:01:49.146Z,15.59
2022-09-20T06:02:51.535Z,15.59
2022-09-20T06:03:54.418Z,15.58
2022-09-20T06:04:56.983Z,15.56
2022-09-20T06:05:59.031Z,15.53
2022-09-20T06:07:01.152Z,15.54
2022-09-20T06:08:03.004Z,15.53
2022-09-20T06:09:05.037Z,15.51
2022-09-20T06:10:07.984Z,15.53
2022-09-20T06:11:10.091Z,15.53
2022-09-20T06:12:11.906Z,15.62
2022-09-20T06:13:13.850Z,15.64
2022-09-20T06:14:15.793Z,15.65
2022-09-20T06:15:17.625Z,15.66
2022-09-20T06:16:20.159Z,15.70
2022-09-20T06:17:21.950Z,15.71
2022-09-20T06:18:23.793Z,15.71
2022-09-20T06:19:25.657Z,15.73
2022-09-20T06:20:29.286Z,15.76
2022-09-20T06:21:31.100Z,15.77
2022-09-20T06:22:32.904Z,15.82
2022-09-20T06:23:34.750Z,15.83
2022-09-20T06:24:36.702Z,15.86
2022-09-20T06:25:38.535Z,15.90
2022-09-20T06:26:40.460Z,15.95
2022-09-20T06:27:42.258Z,15.98
2022-09-20T06:28:44.109Z,16.02
2022-09-20T06:29:45.915Z,16.06
2022-09-20T06:30:47.973Z,16.09
2022-09-20T06:31:49.740Z,16.12
2022-09-20T06:32:51.536Z,16.16
2022-09-20T06:33:53.387Z,16.19
2022-09-20T06:34:55.260Z,16.22
2022-09-20T06:35:59.172Z,16.25
2022-09-20T06:37:01.679Z,16.29
2022-09-20T06:38:03.716Z,16.32
2022-09-20T06:39:05.586Z,16.33
2022-09-20T06:40:08.046Z,16.35
2022-09-20T06:41:09.981Z,16.37
2022-09-20T06:42:11.875Z,16.39
2022-09-20T06:43:13.674Z,16.40
2022-09-20T06:44:15.531Z,16.43
2022-09-20T06:45:17.327Z,16.46
2022-09-20T06:46:19.494Z,16.50
2022-09-20T06:47:21.254Z,16.53
2022-09-20T06:48:23.090Z,16.55
2022-09-20T06:49:24.929Z,16.55
2022-09-20T06:50:27.164Z,16.56
2022-09-20T06:51:28.947Z,16.60
2022-09-20T06:52:30.655Z,16.62
2022-09-20T06:53:32.444Z,16.63
2022-09-20T06:54:34.167Z,16.65
2022-09-20T06:55:35.989Z,16.67
2022-09-20T06:56:37.983Z,16.71
2022-09-20T06:57:39.776Z,16.74
2022-09-20T06:58:41.576Z,16.74
2022-09-20T06:59:43.415Z,16.73
2022-09-20T07:00:45.412Z,16.76
2022-09-20T07:01:47.290Z,16.76
2022-09-20T07:02:49.058Z,16.78
2022-09-20T07:03:50.853Z,16.81
2022-09-20T07:04:52.715Z,16.83
2022-09-20T07:05:54.560Z,16.86
2022-09-20T07:06:56.458Z,16.89
2022-09-20T07:07:58.256Z,16.91
2022-09-20T07:09:00.264Z,16.93
2022-09-20T07:10:02.197Z,16.96
2022-09-20T07:11:04.028Z,16.99
2022-09-20T07:12:05.826Z,17.00
2022-09-20T07:13:07.619Z,17.02
2022-09-20T07:14:09.432Z,17.03
2022-09-20T07:15:11.272Z,17.05
2022-09-20T07:16:13.794Z,17.07
2022-09-20T07:17:15.582Z,17.09
2022-09-20T07:18:17.372Z,17.13
2022-09-20T07:19:19.297Z,17.15
2022-09-20T07:20:21.691Z,17.16
2022-09-20T07:21:23.724Z,17.18
2022-09-20T07:22:25.623Z,17.17
2022-09-20T07:23:27.530Z,17.16
2022-09-20T07:24:29.324Z,17.16
2022-09-20T07:25:31.159Z,17.17
2022-09-20T07:26:33.082Z,17.18
2022-09-20T07:27:34.859Z,17.21
2022-09-20T07:28:36.577Z,17.23
2022-09-20T07:29:38.366Z,17.25
2022-09-20T07:30:40.379Z,17.27
2022-09-20T07:31:42.350Z,17.27
2022-09-20T07:32:44.523Z,17.30
2022-09-20T07:33:46.278Z,17.31
2022-09-20T07:34:48.071Z,17.32
2022-09-20T07:35:49.800Z,17.34
2022-09-20T07:36:52.127Z,17.35
2022-09-20T07:37:54.041Z,17.36
2022-09-20T07:38:55.916Z,17.39
2022-09-20T07:39:57.766Z,17.42
2022-09-20T07:40:59.756Z,17.47
2022-09-20T07:42:01.495Z,17.51
2022-09-20T07:43:03.279Z,17.54
2022-09-20T07:44:05.325Z,17.57
2022-09-20T07:45:07.175Z,17.60
2022-09-20T07:46:09.496Z,17.62
2022-09-20T07:47:11.323Z,17.66
2022-09-20T07:48:13.127Z,17.66
2022-09-20T07:49:14.927Z,17.68
2022-09-20T07:50:17.744Z,17.70
2022-09-20T07:51:19.617Z,17.74
2022-09-20T07:52:21.555Z,17.75
2022-09-20T07:53:23.353Z,17.77
2022-09-20T07:54:25.304Z,17.80
2022-09-20T07:55:27.100Z,17.82
2022-09-20T07:56:29.022Z,17.86
2022-09-20T07:57:30.739Z,17.89
2022-09-20T07:58:32.517Z,17.91
2022-09-20T07:59:34.218Z,17.97
2022-09-20T08:00:36.128Z,17.99
2022-09-20T08:01:37.961Z,18.01
2022-09-20T08:02:39.840Z,18.04
2022-09-20T08:03:41.676Z,18.06
2022-09-20T08:04:43.809Z,18.12
2022-09-20T08:05:45.589Z,18.16
2022-09-20T08:06:47.806Z,18.17
2022-09-20T08:07:49.647Z,18.19
2022-09-20T08:08:51.337Z,18.23
2022-09-20T08:09:53.153Z,18.26
2022-09-20T08:10:55.059Z,18.29
2022-09-20T08:11:57.032Z,18.31
2022-09-20T08:14:07.045Z,18.37
2022-09-20T08:15:09.776Z,18.38
2022-09-20T08:16:09.954Z,18.40
2022-09-20T08:17:11.855Z,18.42
2022-09-20T08:18:13.586Z,18.46
2022-09-20T08:19:15.396Z,18.48
2022-09-20T08:20:17.492Z,18.50
2022-09-20T08:21:19.289Z,18.53
2022-09-20T08:22:21.238Z,18.56
2022-09-20T08:23:24.148Z,18.57
2022-09-20T08:24:26.035Z,18.59
2022-09-20T08:25:27.822Z,18.62
2022-09-20T08:26:30.009Z,18.63
2022-09-20T08:27:31.835Z,18.67
2022-09-20T08:28:33.672Z,18.69
2022-09-20T08:29:35.447Z,18.70
2022-09-20T08:30:37.356Z,18.72
2022-09-20T08:31:39.202Z,18.73
2022-09-20T08:32:40.978Z,18.72
2022-09-20T08:33:42.760Z,18.74
2022-09-20T08:34:49.352Z,18.74
2022-09-20T08:35:48.190Z,18.76
2022-09-20T08:36:50.146Z,18.78
2022-09-20T08:37:52.015Z,18.81
2022-09-20T08:39:58.309Z,18.84
2022-09-20T08:41:00.812Z,18.86
2022-09-20T08:42:02.913Z,18.87
2022-09-20T08:43:05.523Z,18.89
2022-09-20T08:44:07.574Z,18.91
2022-09-20T08:45:09.381Z,18.92
2022-09-20T08:46:12.946Z,18.94
2022-09-20T08:47:14.714Z,18.95
2022-09-20T08:48:16.593Z,18.97
2022-09-20T08:49:18.382Z,18.99
2022-09-20T08:50:20.782Z,19.00
2022-09-20T08:51:23.011Z,19.03
2022-09-20T08:52:25.663Z,19.04
2022-09-20T08:53:28.553Z,19.07
2022-09-20T08:54:32.712Z,19.07
2022-09-20T08:55:37.775Z,19.11
2022-09-20T08:56:38.578Z,19.12
2022-09-20T08:57:40.623Z,19.14
2022-09-20T08:58:42.476Z,19.15
2022-09-20T08:59:44.285Z,19.17
2022-09-20T09:00:47.075Z,19.18
2022-09-20T09:01:49.023Z,19.20
2022-09-20T09:02:51.570Z,19.22
2022-09-20T09:03:53.450Z,19.23
2022-09-20T09:04:55.784Z,19.24
2022-09-20T09:05:58.100Z,19.25
2022-09-20T09:07:00.647Z,19.27
2022-09-20T09:08:04.693Z,19.29
2022-09-20T09:09:06.903Z,19.32
2022-09-20T09:10:09.094Z,19.34
2022-09-20T09:11:11.390Z,19.34
2022-09-20T09:12:13.822Z,19.37
2022-09-20T09:13:16.517Z,19.39
2022-09-20T09:14:18.326Z,19.40
2022-09-20T09:15:20.174Z,19.40
2022-09-20T09:16:23.269Z,19.42
2022-09-20T09:17:28.819Z,19.42
2022-09-20T09:18:31.660Z,19.47
2022-09-20T09:19:34.536Z,19.49
2022-09-20T09:20:38.865Z,19.50
2022-09-20T09:21:41.069Z,19.52
2022-09-20T09:22:42.886Z,19.54
2022-09-20T09:23:44.704Z,19.54
2022-09-20T09:24:46.558Z,19.55
2022-09-20T09:25:48.384Z,19.58
2022-09-20T09:26:50.289Z,19.60
2022-09-20T09:27:52.119Z,19.62
2022-09-20T09:28:53.924Z,19.63
2022-09-20T09:29:56.271Z,19.65
2022-09-20T09:30:58.535Z,19.66
2022-09-20T09:32:00.674Z,19.68
2022-09-20T09:33:02.977Z,19.71
2022-09-20T09:34:04.854Z,19.71
2022-09-20T09:35:07.389Z,19.73
2022-09-20T09:36:11.438Z,19.73
2022-09-20T09:37:13.854Z,19.72
2022-09-20T09:38:16.661Z,19.74
2022-09-20T09:39:18.905Z,19.75
2022-09-20T09:40:21.416Z,19.74
2022-09-20T09:41:23.248Z,19.76
2022-09-20T09:42:26.482Z,19.78
2022-09-20T09:43:29.312Z,19.78
2022-09-20T09:44:31.879Z,19.79
2022-09-20T09:45:34.571Z,19.81
2022-09-20T09:46:37.247Z,19.82
2022-09-20T09:47:39.116Z,19.83
2022-09-20T09:48:41.586Z,19.86
2022-09-20T09:49:43.597Z,19.88
2022-09-20T09:50:45.538Z,19.87
2022-09-20T09:51:47.366Z,19.88
2022-09-20T09:52:49.155Z,19.90
2022-09-20T09:53:51.141Z,19.90
2022-09-20T09:54:52.966Z,19.91
2022-09-20T09:55:54.813Z,19.93
2022-09-20T09:56:56.862Z,19.94
2022-09-20T09:57:58.666Z,19.95
2022-09-20T09:59:00.464Z,19.97
2022-09-20T10:00:10.251Z,19.97
2022-09-20T10:01:06.093Z,19.98
2022-09-20T10:02:08.052Z,19.99
2022-09-20T10:03:10.138Z,20.00
2022-09-20T10:04:11.943Z,20.01
2022-09-20T10:05:13.754Z,20.01
2022-09-20T10:06:15.906Z,20.01
2022-09-20T10:07:17.730Z,20.01
2022-09-20T10:08:19.525Z,20.03
2022-09-20T10:09:21.334Z,20.04
2022-09-20T10:10:23.743Z,20.04
2022-09-20T10:11:25.576Z,20.05
2022-09-20T10:12:27.513Z,20.05
2022-09-20T10:13:29.341Z,20.06
2022-09-20T10:14:31.306Z,20.07
2022-09-20T10:15:33.077Z,20.06
2022-09-20T10:16:35.097Z,20.06
2022-09-20T10:17:37.052Z,20.05
2022-09-20T10:18:38.839Z,20.05
2022-09-20T10:19:40.693Z,20.05
2022-09-20T10:20:42.712Z,20.05
2022-09-20T10:21:44.833Z,20.05
2022-09-20T10:23:00.300Z,20.04
2022-09-20T10:24:06.219Z,20.04
2022-09-20T10:24:54.411Z,20.04
2022-09-20T10:25:56.696Z,20.05
2022-09-20T10:26:59.260Z,20.04
2022-09-20T10:28:01.165Z,20.04
2022-09-20T10:29:02.960Z,20.06
2022-09-20T10:30:05.525Z,20.06
2022-09-20T10:31:07.789Z,20.08
2022-09-20T10:32:12.307Z,20.10
2022-09-20T10:33:13.482Z,20.12
2022-09-20T10:34:15.356Z,20.11
2022-09-20T10:35:17.176Z,20.12
2022-09-20T10:36:20.259Z,20.13
2022-09-20T10:37:22.645Z,20.13
2022-09-20T10:38:24.489Z,20.13
2022-09-20T10:39:26.400Z,20.14
2022-09-20T10:40:29.383Z,20.14
2022-09-20T10:41:31.798Z,20.14
2022-09-20T10:42:33.692Z,20.14
2022-09-20T10:43:36.184Z,20.15
2022-09-20T10:44:38.008Z,20.16
2022-09-20T10:46:44.392Z,20.18
2022-09-20T10:47:46.252Z,20.19
2022-09-20T10:48:48.803Z,20.18
2022-09-20T10:49:51.594Z,20.19
2022-09-20T10:50:53.872Z,20.19
2022-09-20T10:51:55.948Z,20.21
2022-09-20T10:52:58.327Z,20.22
2022-09-20T10:54:00.863Z,20.24
2022-09-20T10:55:02.971Z,20.25
2022-09-20T10:56:04.888Z,20.26
2022-09-20T10:57:06.820Z,20.27
2022-09-20T10:58:09.292Z,20.28
2022-09-20T10:59:11.759Z,20.30
2022-09-20T11:00:14.224Z,20.32
2022-09-20T11:01:16.113Z,20.34
2022-09-20T11:02:19.963Z,20.36
2022-09-20T11:03:22.461Z,20.36
2022-09-20T11:04:24.269Z,20.38
2022-09-20T11:05:26.086Z,20.39
2022-09-20T11:06:28.452Z,20.41
2022-09-20T11:07:30.283Z,20.42
2022-09-20T11:08:32.351Z,20.44
2022-09-20T11:09:34.194Z,20.45
2022-09-20T11:10:36.098Z,20.48
2022-09-20T11:11:38.072Z,20.49
2022-09-20T11:12:39.905Z,20.52
2022-09-20T11:13:41.748Z,20.53
2022-09-20T11:14:43.681Z,20.54
2022-09-20T11:15:45.569Z,20.57
2022-09-20T11:16:47.763Z,20.57
2022-09-20T11:17:49.867Z,20.59
2022-09-20T11:18:52.201Z,20.60
2022-09-20T11:19:54.019Z,20.61
2022-09-20T11:20:55.909Z,20.62
2022-09-20T11:21:57.712Z,20.64
2022-09-20T11:22:59.513Z,20.65
2022-09-20T11:24:01.366Z,20.65
2022-09-20T11:25:03.160Z,20.65
2022-09-20T11:26:05.267Z,20.67
2022-09-20T11:27:07.073Z,20.67
2022-09-20T11:28:08.865Z,20.67
2022-09-20T11:29:10.690Z,20.68
2022-09-20T11:30:12.772Z,20.69
2022-09-20T11:31:14.612Z,20.71
2022-09-20T11:32:16.518Z,20.71
2022-09-20T11:33:18.378Z,20.73
2022-09-20T11:34:20.230Z,20.74
2022-09-20T11:35:22.029Z,20.78
2022-09-20T11:36:24.347Z,20.78
2022-09-20T11:37:26.144Z,20.78
2022-09-20T11:38:27.952Z,20.79
2022-09-20T11:39:29.780Z,20.82
2022-09-20T11:40:31.718Z,20.82
2022-09-20T11:41:33.498Z,20.82
2022-09-20T11:42:35.292Z,20.84
2022-09-20T11:43:37.092Z,20.84
2022-09-20T11:44:38.911Z,20.83
2022-09-20T11:45:40.775Z,20.83
2022-09-20T11:46:42.639Z,20.84
2022-09-20T11:47:54.585Z,20.84
2022-09-20T11:48:48.065Z,20.85
2022-09-20T11:49:49.903Z,20.85
2022-09-20T11:50:51.813Z,20.87
2022-09-20T11:51:53.610Z,20.87
2022-09-20T11:52:55.402Z,20.85
2022-09-20T11:53:57.210Z,20.85
2022-09-20T11:54:59.043Z,20.86
2022-09-20T11:56:00.762Z,20.86
2022-09-20T11:57:02.549Z,20.88
2022-09-20T11:58:04.341Z,20.87
2022-09-20T11:59:06.138Z,20.87
2022-09-20T12:00:08.366Z,20.88
2022-09-20T12:01:10.259Z,20.88
2022-09-20T12:02:12.196Z,20.88
2022-09-20T12:03:13.977Z,20.90
2022-09-20T12:04:31.863Z,20.91
2022-09-20T12:05:19.397Z,20.91
2022-09-20T12:06:22.012Z,20.92
2022-09-20T12:07:23.803Z,20.92
2022-09-20T12:08:25.619Z,20.92
2022-09-20T12:09:27.444Z,20.93
2022-09-20T12:10:31.101Z,20.94
2022-09-20T12:11:32.918Z,20.94
2022-09-20T12:12:34.704Z,20.94
2022-09-20T12:13:36.502Z,20.94
2022-09-20T12:14:38.310Z,20.95
2022-09-20T12:15:40.164Z,20.93
2022-09-20T12:16:42.228Z,20.94
2022-09-20T12:17:43.993Z,20.94
2022-09-20T12:18:45.818Z,20.93
2022-09-20T12:19:47.608Z,20.95
2022-09-20T12:20:49.744Z,20.94
2022-09-20T12:21:51.536Z,20.95
2022-09-20T12:22:53.345Z,20.94
2022-09-20T12:23:55.135Z,20.94
2022-09-20T12:24:56.928Z,20.94
2022-09-20T12:25:58.663Z,20.94
2022-09-20T12:27:00.565Z,20.93
2022-09-20T12:28:02.370Z,20.92
2022-09-20T12:29:04.169Z,20.93
2022-09-20T12:30:06.262Z,20.92
2022-09-20T12:31:08.110Z,20.92
2022-09-20T12:32:10.123Z,20.93
2022-09-20T12:33:11.925Z,20.92
2022-09-20T12:34:13.740Z,20.90
2022-09-20T12:35:15.538Z,20.91
2022-09-20T12:36:18.393Z,20.92
2022-09-20T12:37:20.177Z,20.92
2022-09-20T12:38:21.878Z,20.91
2022-09-20T12:39:28.892Z,20.92
2022-09-20T12:40:27.317Z,20.91
2022-09-20T12:41:29.299Z,20.92
2022-09-20T12:42:31.128Z,20.92
2022-09-20T12:43:32.924Z,20.89
2022-09-20T12:44:34.719Z,20.92
2022-09-20T12:45:36.551Z,20.89
2022-09-20T12:46:38.453Z,20.90
2022-09-20T12:47:40.724Z,20.90
2022-09-20T12:48:42.533Z,20.89
2022-09-20T12:49:44.325Z,20.89
2022-09-20T12:50:46.137Z,20.88
2022-09-20T12:51:48.293Z,20.88
2022-09-20T12:52:50.098Z,20.89
2022-09-20T12:53:51.891Z,20.90
2022-09-20T12:54:53.712Z,20.88
2022-09-20T12:55:55.517Z,20.88
2022-09-20T12:56:57.475Z,20.87
2022-09-20T12:58:00.426Z,20.88
2022-09-20T12:59:02.242Z,20.88
2022-09-20T13:00:04.135Z,20.87
2022-09-20T13:01:08.395Z,20.85
2022-09-20T13:02:09.628Z,20.83
2022-09-20T13:03:11.464Z,20.83
2022-09-20T13:04:13.288Z,20.83
2022-09-20T13:05:15.088Z,20.83
2022-09-20T13:06:17.193Z,20.83
2022-09-20T13:07:19.077Z,20.82
2022-09-20T13:08:20.879Z,20.83
2022-09-20T13:09:22.677Z,20.85
2022-09-20T13:10:24.781Z,20.85
2022-09-20T13:11:26.654Z,20.84
2022-09-20T13:12:28.457Z,20.84
2022-09-20T13:13:30.253Z,20.85
2022-09-20T13:14:32.052Z,20.85
2022-09-20T13:15:33.868Z,20.85
2022-09-20T13:16:35.957Z,20.83
2022-09-20T13:17:37.812Z,20.82
2022-09-20T13:18:39.655Z,20.81
2022-09-20T13:19:41.457Z,20.82
2022-09-20T13:20:43.358Z,20.84
2022-09-20T13:21:45.160Z,20.84